createdAt,value
2019-03-18T00:01:33.700Z,4.37
2019-03-18T00:04:02.181Z,5.57
2019-03-18T00:06:30.641Z,3.83
2019-03-18T00:08:59.105Z,6.83
2019-03-18T00:11:27.560Z,6.80
2019-03-18T00:13:55.985Z,4.33
2019-03-18T00:16:24.560Z,5.20
2019-03-18T00:18:53.498Z,4.87
2019-03-18T00:21:21.934Z,6.23
2019-03-18T00:23:50.374Z,6.30
2019-03-18T00:26:18.753Z,5.83
2019-03-18T00:28:47.282Z,7.70
2019-03-18T00:31:15.712Z,8.90
2019-03-18T00:34:20.839Z,8.57
2019-03-18T00:36:49.292Z,10.23
2019-03-18T00:39:17.788Z,7.47
2019-03-18T00:41:46.350Z,8.73
2019-03-18T00:44:14.813Z,5.33
2019-03-18T00:46:43.214Z,9.03
2019-03-18T00:49:11.604Z,9.20
2019-03-18T00:51:40.008Z,11.13
2019-03-18T00:54:08.467Z,6.63
2019-03-18T00:56:36.969Z,6.67
2019-03-18T00:59:05.427Z,8.83
2019-03-18T01:01:33.878Z,6.80
2019-03-18T01:04:02.412Z,9.83
2019-03-18T01:06:30.864Z,7.90
2019-03-18T01:08:59.313Z,5.63
2019-03-18T01:11:27.812Z,11.27
2019-03-18T01:13:56.252Z,7.87
2019-03-18T01:16:24.642Z,7.60
2019-03-18T01:18:53.076Z,7.37
2019-03-18T01:21:21.454Z,7.23
2019-03-18T01:23:49.907Z,5.83
2019-03-18T01:26:18.462Z,10.23
2019-03-18T01:28:46.924Z,7.20
2019-03-18T01:31:15.392Z,10.17
2019-03-18T01:33:43.864Z,7.40
2019-03-18T01:36:12.346Z,12.50
2019-03-18T01:38:40.745Z,5.80
2019-03-18T01:41:09.317Z,6.40
2019-03-18T01:43:37.693Z,9.20
2019-03-18T01:46:08.840Z,5.90
2019-03-18T01:48:37.267Z,9.03
2019-03-18T01:51:32.801Z,7.27
2019-03-18T01:54:01.302Z,11.07
2019-03-18T01:56:29.684Z,5.70
2019-03-18T01:58:58.143Z,7.47
2019-03-18T02:01:26.678Z,8.27
2019-03-18T02:03:55.128Z,8.10
2019-03-18T02:06:23.587Z,7.83
2019-03-18T02:08:52.032Z,7.87
2019-03-18T02:11:20.477Z,10.37
2019-03-18T02:13:48.857Z,8.83
2019-03-18T02:16:17.332Z,10.03
2019-03-18T02:18:45.805Z,10.03
2019-03-18T02:21:14.296Z,8.93
2019-03-18T02:23:42.738Z,8.27
2019-03-18T02:26:11.205Z,8.57
2019-03-18T02:28:39.717Z,9.87
2019-03-18T02:31:08.272Z,7.63
2019-03-18T02:33:36.658Z,10.70
2019-03-18T02:36:05.036Z,13.60
2019-03-18T02:38:33.515Z,11.23
2019-03-18T02:41:01.899Z,9.47
2019-03-18T02:43:30.461Z,10.77
2019-03-18T02:46:09.798Z,7.90
2019-03-18T02:48:29.224Z,15.57
2019-03-18T02:50:57.690Z,10.33
2019-03-18T02:53:26.120Z,12.80
2019-03-18T02:55:54.608Z,16.00
2019-03-18T02:58:23.096Z,13.67
2019-03-18T03:00:51.512Z,14.87
2019-03-18T03:03:20.002Z,17.13
2019-03-18T03:06:15.702Z,16.93
2019-03-18T03:08:44.108Z,18.73
2019-03-18T03:11:12.593Z,16.53
2019-03-18T03:13:41.491Z,17.40
2019-03-18T03:16:25.072Z,17.70
2019-03-18T03:18:41.253Z,16.53
2019-03-18T03:21:09.652Z,16.03
2019-03-18T03:23:38.167Z,20.67
2019-03-18T03:26:06.780Z,23.90
2019-03-18T03:28:35.241Z,18.70
2019-03-18T03:31:03.775Z,21.30
2019-03-18T03:33:32.277Z,20.60
2019-03-18T03:36:00.813Z,20.13
2019-03-18T03:38:29.510Z,19.70
2019-03-18T03:40:57.979Z,25.43
2019-03-18T03:43:26.530Z,26.10
2019-03-18T03:45:55.106Z,23.20
2019-03-18T03:48:23.553Z,21.77
2019-03-18T03:50:52.130Z,22.00
2019-03-18T03:53:20.695Z,26.37
2019-03-18T03:55:49.165Z,22.03
2019-03-18T03:58:17.637Z,26.07
2019-03-18T04:00:46.301Z,27.20
2019-03-18T04:03:14.775Z,25.60
2019-03-18T04:05:43.265Z,29.53
2019-03-18T04:08:11.855Z,30.17
2019-03-18T04:10:40.337Z,28.03
2019-03-18T04:13:13.908Z,28.90
2019-03-18T04:15:42.492Z,25.80
2019-03-18T04:18:11.021Z,31.30
2019-03-18T04:20:39.536Z,29.13
2019-03-18T04:23:08.164Z,25.43
2019-03-18T04:25:36.593Z,31.03
2019-03-18T04:28:05.069Z,32.63
2019-03-18T04:30:34.017Z,32.20
2019-03-18T04:33:02.420Z,32.67
2019-03-18T04:35:30.990Z,33.77
2019-03-18T04:37:59.486Z,33.63
2019-03-18T04:40:27.982Z,34.30
2019-03-18T04:42:57.052Z,40.57
2019-03-18T04:45:25.599Z,34.57
2019-03-18T04:47:54.044Z,32.40
2019-03-18T04:50:22.534Z,28.73
2019-03-18T04:52:51.114Z,33.90
2019-03-18T04:55:19.635Z,28.23
2019-03-18T04:57:48.102Z,30.90
2019-03-18T05:00:18.328Z,31.40
2019-03-18T05:02:46.781Z,30.00
2019-03-18T05:05:24.228Z,33.13
2019-03-18T05:07:52.676Z,32.03
2019-03-18T05:10:21.245Z,35.20
2019-03-18T05:12:49.652Z,33.23
2019-03-18T05:15:18.210Z,35.17
2019-03-18T05:17:46.732Z,40.13
2019-03-18T05:20:15.240Z,33.23
2019-03-18T05:22:43.688Z,33.97
2019-03-18T05:25:12.311Z,37.60
2019-03-18T05:27:41.229Z,36.83
2019-03-18T05:30:09.633Z,38.23
2019-03-18T05:32:38.080Z,37.00
2019-03-18T05:35:06.604Z,37.00
2019-03-18T05:37:35.105Z,37.60
2019-03-18T05:40:03.764Z,35.97
2019-03-18T05:42:32.256Z,40.40
2019-03-18T05:45:00.725Z,40.13
2019-03-18T05:47:38.501Z,39.33
2019-03-18T05:49:59.473Z,37.17
2019-03-18T05:52:27.964Z,38.00
2019-03-18T05:54:56.457Z,48.50
2019-03-18T05:57:26.142Z,38.63
2019-03-18T05:59:54.689Z,41.63
2019-03-18T06:02:23.095Z,40.83
2019-03-18T06:04:51.713Z,43.70
2019-03-18T06:07:20.176Z,43.87
2019-03-18T06:09:48.695Z,46.53
2019-03-18T06:12:17.381Z,42.87
2019-03-18T06:14:45.852Z,41.60
2019-03-18T06:17:14.330Z,44.13
2019-03-18T06:19:43.725Z,35.53
2019-03-18T06:22:12.170Z,45.47
2019-03-18T06:24:40.614Z,35.87
2019-03-18T06:27:09.048Z,35.37
2019-03-18T06:29:37.656Z,40.00
2019-03-18T06:32:06.064Z,42.23
2019-03-18T06:34:34.564Z,44.07
2019-03-18T06:37:02.968Z,46.37
2019-03-18T06:39:31.349Z,42.07
2019-03-18T06:41:59.931Z,39.20
2019-03-18T06:44:28.427Z,45.93
2019-03-18T06:46:57.002Z,52.97
2019-03-18T06:49:26.800Z,48.87
2019-03-18T06:51:55.333Z,46.03
2019-03-18T06:54:23.825Z,43.50
2019-03-18T06:56:52.324Z,37.57
2019-03-18T06:59:20.805Z,40.00
2019-03-18T07:01:49.230Z,37.63
2019-03-18T07:04:17.749Z,38.43
2019-03-18T07:06:46.476Z,34.60
2019-03-18T07:09:15.080Z,43.20
2019-03-18T07:11:43.605Z,35.90
2019-03-18T07:14:12.137Z,40.87
2019-03-18T07:16:40.588Z,38.70
2019-03-18T07:19:09.137Z,37.27
2019-03-18T07:21:37.561Z,36.63
2019-03-18T07:24:06.030Z,35.30
2019-03-18T07:26:34.536Z,32.77
2019-03-18T07:29:02.945Z,38.67
2019-03-18T07:31:31.348Z,39.37
2019-03-18T07:34:00.071Z,37.03
2019-03-18T07:36:28.585Z,41.70
2019-03-18T07:38:57.049Z,37.10
2019-03-18T07:41:25.471Z,35.77
2019-03-18T07:43:53.928Z,45.63
2019-03-18T07:46:22.305Z,38.90
2019-03-18T07:48:51.144Z,34.23
2019-03-18T07:51:19.485Z,34.43
2019-03-18T07:53:47.944Z,32.10
2019-03-18T07:56:16.594Z,33.03
2019-03-18T07:58:45.139Z,27.57
2019-03-18T08:01:13.544Z,36.93
2019-03-18T08:03:42.052Z,31.77
2019-03-18T08:06:10.648Z,26.83
2019-03-18T08:08:39.222Z,26.77
2019-03-18T08:11:07.835Z,32.23
2019-03-18T08:13:36.425Z,30.93
2019-03-18T08:16:04.905Z,42.00
2019-03-18T08:18:42.668Z,28.70
2019-03-18T08:21:03.853Z,28.40
2019-03-18T08:23:32.351Z,25.77
2019-03-18T08:26:00.824Z,23.17
2019-03-18T08:28:29.201Z,32.57
2019-03-18T08:30:57.674Z,24.07
2019-03-18T08:33:26.220Z,23.23
2019-03-18T08:35:54.668Z,27.97
2019-03-18T08:38:23.214Z,24.43
2019-03-18T08:40:51.739Z,21.07
2019-03-18T08:43:20.275Z,26.80
2019-03-18T08:45:48.776Z,23.93
2019-03-18T08:48:17.292Z,22.10
2019-03-18T08:50:45.804Z,23.07
2019-03-18T08:53:14.268Z,23.63
2019-03-18T08:55:42.864Z,20.33
2019-03-18T08:58:11.346Z,17.93
2019-03-18T09:00:39.798Z,19.93
2019-03-18T09:03:09.100Z,16.07
2019-03-18T09:05:37.608Z,14.17
2019-03-18T09:08:06.105Z,17.00
2019-03-18T09:10:34.602Z,15.23
2019-03-18T09:13:03.012Z,10.33
2019-03-18T09:15:31.463Z,12.23
2019-03-18T09:17:59.998Z,12.10
2019-03-18T09:20:28.381Z,14.83
2019-03-18T09:22:56.932Z,20.13
2019-03-18T09:25:25.473Z,19.77
2019-03-18T09:27:53.912Z,9.20
2019-03-18T09:30:22.306Z,18.37
2019-03-18T09:32:50.837Z,10.40
2019-03-18T09:35:19.340Z,17.10
2019-03-18T09:37:47.720Z,12.80
2019-03-18T09:40:16.232Z,15.90
2019-03-18T09:42:44.787Z,17.47
2019-03-18T09:45:13.347Z,16.93
2019-03-18T09:47:41.849Z,16.07
2019-03-18T09:50:10.431Z,15.70
2019-03-18T09:52:38.888Z,10.43
2019-03-18T09:55:07.381Z,12.87
2019-03-18T09:57:35.934Z,16.43
2019-03-18T10:00:04.618Z,8.77
2019-03-18T10:02:33.120Z,19.10
2019-03-18T10:05:01.621Z,15.27
2019-03-18T10:07:30.155Z,14.33
2019-03-18T10:09:58.588Z,14.00
2019-03-18T10:12:27.058Z,9.47
2019-03-18T10:14:55.452Z,12.67
2019-03-18T10:17:23.975Z,12.40
2019-03-18T10:19:53.545Z,14.80
2019-03-18T10:22:22.246Z,14.33
2019-03-18T10:24:50.765Z,12.93
2019-03-18T10:27:19.230Z,15.43
2019-03-18T10:29:47.749Z,10.83
2019-03-18T10:32:16.138Z,11.60
2019-03-18T10:34:44.847Z,13.47
2019-03-18T10:37:13.357Z,13.03
2019-03-18T10:39:41.838Z,10.97
2019-03-18T10:42:10.374Z,12.53
2019-03-18T10:44:38.828Z,11.93
2019-03-18T10:47:07.259Z,9.03
2019-03-18T10:49:45.447Z,15.93
2019-03-18T10:52:05.981Z,11.27
2019-03-18T10:54:34.358Z,12.37
2019-03-18T10:57:02.960Z,10.40
2019-03-18T10:59:31.339Z,12.00
2019-03-18T11:01:59.785Z,23.00
2019-03-18T11:04:28.216Z,12.20
2019-03-18T11:06:56.584Z,16.40
2019-03-18T11:09:24.964Z,14.10
2019-03-18T11:11:54.245Z,13.53
2019-03-18T11:14:22.596Z,9.57
2019-03-18T11:16:52.443Z,10.30
2019-03-18T11:19:21.176Z,11.33
2019-03-18T11:21:49.559Z,14.47
2019-03-18T11:24:17.930Z,15.90
2019-03-18T11:26:46.411Z,13.53
2019-03-18T11:29:14.845Z,11.10
2019-03-18T11:31:44.885Z,11.40
2019-03-18T11:34:13.340Z,10.57
2019-03-18T11:36:41.798Z,8.13
2019-03-18T11:39:10.704Z,8.63
2019-03-18T11:41:39.172Z,12.07
2019-03-18T11:44:07.661Z,14.83
2019-03-18T11:46:36.111Z,10.90
2019-03-18T11:49:04.964Z,12.63
2019-03-18T11:51:33.689Z,8.20
2019-03-18T11:54:02.144Z,10.03
2019-03-18T11:56:30.535Z,7.97
2019-03-18T11:58:59.155Z,8.57
2019-03-18T12:01:29.047Z,11.73
2019-03-18T12:03:57.425Z,6.70
2019-03-18T12:06:27.721Z,8.00
2019-03-18T12:08:56.146Z,11.87
2019-03-18T12:11:26.229Z,8.97
2019-03-18T12:13:54.706Z,15.80
2019-03-18T12:16:24.054Z,5.33
2019-03-18T12:18:52.469Z,11.80
2019-03-18T12:21:21.273Z,11.07
2019-03-18T12:23:49.723Z,9.83
2019-03-18T12:26:20.016Z,8.20
2019-03-18T12:28:49.147Z,6.97
2019-03-18T12:31:17.980Z,9.23
2019-03-18T12:33:51.528Z,7.83
2019-03-18T12:36:22.498Z,8.10
2019-03-18T12:38:51.157Z,5.13
2019-03-18T12:41:19.653Z,8.60
2019-03-18T12:43:49.132Z,5.93
2019-03-18T12:46:17.640Z,17.37
2019-03-18T12:48:46.178Z,11.00
2019-03-18T12:51:14.670Z,8.93
2019-03-18T12:53:43.103Z,6.93
2019-03-18T12:56:11.641Z,10.70
2019-03-18T12:58:40.119Z,9.17
2019-03-18T13:01:12.812Z,8.77
2019-03-18T13:03:39.149Z,12.60
2019-03-18T13:06:07.692Z,10.67
2019-03-18T13:08:36.084Z,14.70
2019-03-18T13:11:04.646Z,9.90
2019-03-18T13:13:33.147Z,8.03
2019-03-18T13:16:02.935Z,9.53
2019-03-18T13:18:31.307Z,8.63
2019-03-18T13:21:07.773Z,9.57
2019-03-18T13:23:30.002Z,7.30
2019-03-18T13:25:58.679Z,7.87
2019-03-18T13:28:27.384Z,14.70
2019-03-18T13:30:55.868Z,9.77
2019-03-18T13:33:24.272Z,9.40
2019-03-18T13:35:52.994Z,13.20
2019-03-18T13:38:21.616Z,8.07
2019-03-18T13:40:50.075Z,11.03
2019-03-18T13:43:18.578Z,7.00
2019-03-18T13:45:55.139Z,11.70
2019-03-18T13:48:17.766Z,9.43
2019-03-18T13:50:46.244Z,11.43
2019-03-18T13:53:14.867Z,8.63
2019-03-18T13:55:43.453Z,8.07
2019-03-18T13:58:11.963Z,8.70
2019-03-18T14:00:40.446Z,11.33
2019-03-18T14:03:08.839Z,10.97
2019-03-18T14:05:37.195Z,9.90
2019-03-18T14:08:05.665Z,9.30
2019-03-18T14:10:34.097Z,9.23
2019-03-18T14:13:02.568Z,10.17
2019-03-18T14:15:30.941Z,11.60
2019-03-18T14:17:59.427Z,8.40
2019-03-18T14:20:27.905Z,10.73
2019-03-18T14:22:56.443Z,10.57
2019-03-18T14:25:24.902Z,12.27
2019-03-18T14:27:55.301Z,9.13
2019-03-18T14:30:23.777Z,10.70
2019-03-18T14:32:52.263Z,5.80
2019-03-18T14:35:22.068Z,7.97
2019-03-18T14:37:50.673Z,8.17
2019-03-18T14:40:19.164Z,10.57
2019-03-18T14:42:47.823Z,11.03
2019-03-18T14:45:17.203Z,6.13
2019-03-18T14:47:45.799Z,6.87
2019-03-18T14:50:14.570Z,8.10
2019-03-18T14:52:43.111Z,9.87
2019-03-18T14:55:11.569Z,12.27
2019-03-18T14:57:40.029Z,9.43
2019-03-18T15:00:14.536Z,5.57
2019-03-18T15:02:41.747Z,5.53
2019-03-18T15:05:10.386Z,9.97
2019-03-18T15:07:39.040Z,6.27
2019-03-18T15:10:08.132Z,8.97
2019-03-18T15:12:36.746Z,10.60
2019-03-18T15:15:05.386Z,8.03
2019-03-18T15:17:36.782Z,7.77
2019-03-18T15:20:05.369Z,11.67
2019-03-18T15:22:33.773Z,5.70
2019-03-18T15:25:08.290Z,9.40
2019-03-18T15:27:36.766Z,8.93
2019-03-18T15:30:07.236Z,9.77
2019-03-18T15:32:35.679Z,6.30
2019-03-18T15:35:04.648Z,10.67
2019-03-18T15:37:33.195Z,7.20
2019-03-18T15:40:02.226Z,7.93
2019-03-18T15:42:31.281Z,12.90
2019-03-18T15:45:03.389Z,10.37
2019-03-18T15:47:34.204Z,9.03
2019-03-18T15:50:04.772Z,13.70
2019-03-18T15:52:35.289Z,14.60
2019-03-18T15:55:04.052Z,12.13
2019-03-18T15:57:32.610Z,12.67
2019-03-18T16:00:06.012Z,10.13
2019-03-18T16:02:36.586Z,8.90
2019-03-18T16:05:05.466Z,11.83
2019-03-18T16:07:34.022Z,9.10
2019-03-18T16:10:03.019Z,8.80
2019-03-18T16:12:38.719Z,9.70
2019-03-18T16:15:11.716Z,11.80
2019-03-18T16:17:41.709Z,15.57
2019-03-18T16:20:11.681Z,8.00
2019-03-18T16:22:40.323Z,11.97
2019-03-18T16:25:08.843Z,10.87
2019-03-18T16:27:38.405Z,14.90
2019-03-18T16:30:07.811Z,12.03
2019-03-18T16:32:36.807Z,12.67
2019-03-18T16:35:06.551Z,13.13
2019-03-18T16:37:34.985Z,10.07
2019-03-18T16:40:03.510Z,5.60
2019-03-18T16:42:31.995Z,18.17
2019-03-18T16:45:00.571Z,12.77
2019-03-18T16:47:31.270Z,15.43
2019-03-18T16:50:02.440Z,17.47
2019-03-18T16:52:36.118Z,9.53
2019-03-18T16:55:03.601Z,10.07
2019-03-18T16:57:32.145Z,12.53
2019-03-18T17:00:00.991Z,12.13
2019-03-18T17:02:29.778Z,7.20
2019-03-18T17:04:58.206Z,11.87
2019-03-18T17:07:26.714Z,9.37
2019-03-18T17:09:55.161Z,12.60
2019-03-18T17:12:24.263Z,10.10
2019-03-18T17:14:53.807Z,11.00
2019-03-18T17:17:22.263Z,10.23
2019-03-18T17:19:50.803Z,6.17
2019-03-18T17:22:19.416Z,6.70
2019-03-18T17:24:49.118Z,7.77
2019-03-18T17:27:17.815Z,10.27
2019-03-18T17:29:48.286Z,11.13
2019-03-18T17:32:22.094Z,8.90
2019-03-18T17:34:52.019Z,7.97
2019-03-18T17:37:21.618Z,8.43
2019-03-18T17:39:51.086Z,9.50
2019-03-18T17:42:22.860Z,9.77
2019-03-18T17:44:54.801Z,11.43
2019-03-18T17:47:23.838Z,7.83
2019-03-18T17:49:52.487Z,5.37
2019-03-18T17:52:21.281Z,5.97
2019-03-18T17:54:55.543Z,6.97
2019-03-18T17:57:42.223Z,8.57
2019-03-18T18:00:13.336Z,13.67
2019-03-18T18:02:43.821Z,9.73
2019-03-18T18:05:12.620Z,12.85
2019-03-18T18:07:41.684Z,14.77
2019-03-18T18:10:10.730Z,11.50
2019-03-18T18:12:40.380Z,11.17
2019-03-18T18:15:11.218Z,8.07
2019-03-18T18:17:41.047Z,7.20
2019-03-18T18:20:10.520Z,8.60
2019-03-18T18:22:41.022Z,8.73
2019-03-18T18:25:12.413Z,10.90
2019-03-18T18:27:44.587Z,8.93
2019-03-18T18:30:13.554Z,8.93
2019-03-18T18:32:42.082Z,7.63
2019-03-18T18:35:11.041Z,13.83
2019-03-18T18:37:39.750Z,17.13
2019-03-18T18:40:09.136Z,15.20
2019-03-18T18:42:37.932Z,21.77
2019-03-18T18:45:06.453Z,17.43
2019-03-18T18:47:37.769Z,23.10
2019-03-18T18:50:07.509Z,16.33
2019-03-18T18:52:36.252Z,26.73
2019-03-18T18:55:07.256Z,18.07
2019-03-18T18:57:39.068Z,21.63
2019-03-18T19:00:09.371Z,15.37
2019-03-18T19:02:37.971Z,11.70
2019-03-18T19:05:06.902Z,10.40
2019-03-18T19:07:35.505Z,10.03
2019-03-18T19:10:04.546Z,10.03
2019-03-18T19:12:51.193Z,14.28
2019-03-18T19:15:35.735Z,10.23
2019-03-18T19:18:08.407Z,9.93
2019-03-18T19:20:45.049Z,11.10
2019-03-18T19:23:16.814Z,10.13
2019-03-18T19:25:45.556Z,8.43
2019-03-18T19:28:23.154Z,8.03
2019-03-18T19:30:51.848Z,11.13
2019-03-18T19:33:22.036Z,9.20
2019-03-18T19:35:50.885Z,13.40
2019-03-18T19:38:19.838Z,12.53
2019-03-18T19:40:50.713Z,13.33
2019-03-18T19:43:19.393Z,11.57
2019-03-18T19:45:50.086Z,10.03
2019-03-18T19:48:18.844Z,9.00
2019-03-18T19:50:47.497Z,7.50
2019-03-18T19:53:16.379Z,11.40
2019-03-18T19:55:46.896Z,8.03
2019-03-18T19:58:15.617Z,12.33
2019-03-18T20:00:48.964Z,11.50
2019-03-18T20:03:26.571Z,7.67
2019-03-18T20:06:04.388Z,9.63
2019-03-18T20:08:33.561Z,7.23
2019-03-18T20:11:02.351Z,11.97
2019-03-18T20:13:31.538Z,8.07
2019-03-18T20:16:03.099Z,15.57
2019-03-18T20:18:32.896Z,13.60
2019-03-18T20:21:21.645Z,10.17
2019-03-18T20:24:00.402Z,14.73
2019-03-18T20:26:21.708Z,13.23
2019-03-18T20:28:50.422Z,10.47
2019-03-18T20:31:25.760Z,8.93
2019-03-18T20:33:51.168Z,8.43
2019-03-18T20:36:19.934Z,9.63
2019-03-18T20:38:48.642Z,12.47
2019-03-18T20:41:17.836Z,9.10
2019-03-18T20:43:46.858Z,12.43
2019-03-18T20:46:15.286Z,10.20
2019-03-18T20:48:45.120Z,14.20
2019-03-18T20:51:13.608Z,13.90
2019-03-18T20:53:42.340Z,12.20
2019-03-18T20:56:10.883Z,13.07
2019-03-18T20:58:39.493Z,9.70
2019-03-18T21:01:12.594Z,5.90
2019-03-18T21:03:41.067Z,8.97
2019-03-18T21:06:09.728Z,8.30
2019-03-18T21:08:40.215Z,8.63
2019-03-18T21:11:08.725Z,9.40
2019-03-18T21:13:37.687Z,6.57
2019-03-18T21:16:06.145Z,11.77
2019-03-18T21:18:34.587Z,11.90
2019-03-18T21:21:02.971Z,10.27
2019-03-18T21:23:33.069Z,10.10
2019-03-18T21:26:01.533Z,15.13
2019-03-18T21:28:40.568Z,10.40
2019-03-18T21:30:59.991Z,12.63
2019-03-18T21:33:28.494Z,10.07
2019-03-18T21:35:56.852Z,8.70
2019-03-18T21:38:25.325Z,11.67
2019-03-18T21:40:53.741Z,13.07
2019-03-18T21:43:22.109Z,7.40
2019-03-18T21:45:50.514Z,8.40
2019-03-18T21:48:18.955Z,10.23
2019-03-18T21:50:47.383Z,14.67
2019-03-18T21:53:17.292Z,13.00
2019-03-18T21:55:46.575Z,6.90
2019-03-18T21:58:15.048Z,7.17
2019-03-18T22:00:43.408Z,7.63
2019-03-18T22:03:12.458Z,9.07
2019-03-18T22:05:40.899Z,13.13
2019-03-18T22:08:09.715Z,9.03
2019-03-18T22:10:39.014Z,7.83
2019-03-18T22:13:07.966Z,9.90
2019-03-18T22:15:40.619Z,12.53
2019-03-18T22:18:09.556Z,6.30
2019-03-18T22:20:38.018Z,10.60
2019-03-18T22:23:06.462Z,12.53
2019-03-18T22:25:34.974Z,10.20
2019-03-18T22:28:03.450Z,8.20
2019-03-18T22:30:31.908Z,18.93
2019-03-18T22:33:00.471Z,9.37
2019-03-18T22:35:28.982Z,11.90
2019-03-18T22:37:57.390Z,8.37
2019-03-18T22:40:25.997Z,10.30
2019-03-18T22:42:54.461Z,10.60
2019-03-18T22:45:22.853Z,9.03
2019-03-18T22:47:51.425Z,7.30
2019-03-18T22:50:19.984Z,13.80
2019-03-18T22:52:48.442Z,11.60
2019-03-18T22:55:17.014Z,8.13
2019-03-18T22:57:45.481Z,11.53
2019-03-18T23:00:20.839Z,11.93
2019-03-18T23:03:16.456Z,13.50
2019-03-18T23:05:44.975Z,12.03
2019-03-18T23:08:13.426Z,6.57
2019-03-18T23:10:41.856Z,10.33
2019-03-18T23:13:10.268Z,13.07
2019-03-18T23:15:38.708Z,9.90
2019-03-18T23:18:07.153Z,17.43
2019-03-18T23:20:35.614Z,17.40
2019-03-18T23:23:04.165Z,15.43
2019-03-18T23:25:32.616Z,14.10
2019-03-18T23:28:01.115Z,10.57
2019-03-18T23:30:29.669Z,15.27
2019-03-18T23:32:58.109Z,9.57
2019-03-18T23:35:26.563Z,9.57
2019-03-18T23:37:55.094Z,12.70
2019-03-18T23:40:23.606Z,15.93
2019-03-18T23:42:52.012Z,10.10
2019-03-18T23:45:20.453Z,6.93
2019-03-18T23:47:48.888Z,14.50
2019-03-18T23:50:17.451Z,13.83
2019-03-18T23:52:45.910Z,15.97
2019-03-18T23:55:19.421Z,13.00
2019-03-18T23:57:44.569Z,21.57
